ダッカ の空港の天気 - METARとTAF

シャージャラル国際空港(ダッカ) ( VGHS / DAC ) - バングラデシュ ダッカ
飛行場実況気象(Metar)
観測時間08/05 02:00 BDT (08/04 20:00 UTC)
風向・風速北東 3m/s
視程3500m
天気現象煙霧
全天の4割程度の雲 雲底高度 370m
全天の8割程度の雲 雲底高度 3050m
気温28℃
湿度79%
気圧994hPa
METARVGHS 042000Z 04005KT 3500 HZ SCT012 BKN100 28/24 Q0994 NOSIG
過去の天気等 Google飛行場航空写真 Wunderground天気予報

過去48時間のMETAR

飛行場予報(TAF)
発表時間: 8/04 23:00 BDT (8/04 17:00 UTC)
予報対象時間: 5日0時 BDT ~ 6日6時 BDT
風向・風速南南東 3m/s
視程3500m
天気現象煙霧
全天の4割程度の雲 雲底高度 370m
全天の8割程度の雲 雲底高度 3050m
5日0時 BDT ~ 5日6時 BDT に一時的に
風向・風速南南東 10m/s
視程2000m
5日9時 BDT ~ 5日11時 BDT に徐々に
風向・風速東南東 4m/s
視程4000m
天気現象煙霧
全天の4割程度の雲 雲底高度 460m
全天の8割程度の雲 雲底高度 3050m
5日9時 BDT ~ 5日18時 BDT に一時的に
風向・風速東南東 10m/s
視程2000m
TAF VGHS 041700Z 0418/0524 16005KT 3500 HZ SCT012 BKN100
TEMPO 0418/0424 16020KT 2000 RA/TSRA BKN008 FEW025CB OVC090
BECMG 0503/0505 12008KT 4000 HZ SCT015 BKN100
TEMPO 0503/0512 12020KT 2000 RA/TSRA BKN008 FEW025CB OVC090